Time;durP1;ratioP1;P1;durP2;ratioP2;P2;SDS_P1;SDS_P2;PMS_P1;PMS_P2;Temp;Humidity;BMP_temperature;BMP_pressure;BME280_temperature;BME280_humidity;BME280_pressure;Samples;Min_cycle;Max_cycle;Signal;HPM_P1;HPM_P2
2023/11/05 00:02:10;;;;;;;13.55;4.57;;;10.60;99.90;;;;;;4860460;29;20220;-62
2023/11/05 00:04:36;;;;;;;9.68;3.72;;;10.50;99.90;;;;;;4860231;29;20186;-60
2023/11/05 00:07:02;;;;;;;12.82;4.35;;;10.50;99.90;;;;;;4860660;29;20265;-66
2023/11/05 00:09:29;;;;;;;14.52;3.95;;;10.50;99.90;;;;;;4859986;29;20202;-66
2023/11/05 00:11:55;;;;;;;9.85;3.95;;;10.50;99.90;;;;;;4859320;29;20246;-62
2023/11/05 00:14:21;;;;;;;14.60;4.18;;;10.50;99.90;;;;;;4859911;29;20190;-70
2023/11/05 00:16:47;;;;;;;11.85;3.97;;;10.40;99.90;;;;;;4860433;29;20606;-63
2023/11/05 00:19:13;;;;;;;10.15;3.85;;;10.40;99.90;;;;;;4859058;29;20190;-62
2023/11/05 00:21:39;;;;;;;13.07;4.28;;;10.50;99.90;;;;;;4873891;29;20701;-63
2023/11/05 00:24:06;;;;;;;10.68;3.95;;;10.50;99.90;;;;;;4860341;29;20198;-68
2023/11/05 00:26:32;;;;;;;9.82;3.35;;;10.50;99.90;;;;;;4859887;29;20186;-63
2023/11/05 00:28:59;;;;;;;15.35;4.00;;;10.50;99.90;;;;;;4859866;29;20186;-67
2023/11/05 00:31:25;;;;;;;12.20;4.13;;;10.60;99.90;;;;;;4858737;29;20243;-65
2023/11/05 00:33:51;;;;;;;13.90;3.70;;;10.50;99.90;;;;;;4860228;29;20182;-64
2023/11/05 00:36:17;;;;;;;12.40;3.72;;;10.50;99.90;;;;;;4859140;29;20603;-64
2023/11/05 00:38:43;;;;;;;20.13;4.75;;;10.60;99.90;;;;;;4858748;29;20249;-64
2023/11/05 00:41:09;;;;;;;15.05;3.70;;;10.60;99.90;;;;;;4859110;29;20178;-66
2023/11/05 00:43:35;;;;;;;15.77;4.28;;;10.60;99.90;;;;;;4859187;29;20266;-70
2023/11/05 00:46:01;;;;;;;14.70;3.97;;;10.60;99.90;;;;;;4859061;29;20217;-68
2023/11/05 00:48:27;;;;;;;15.25;3.97;;;10.60;99.90;;;;;;4858494;29;20673;-63
2023/11/05 00:50:53;;;;;;;15.68;4.57;;;10.60;99.90;;;;;;4859600;29;20182;-64
2023/11/05 00:53:19;;;;;;;21.17;4.25;;;10.60;99.90;;;;;;4859981;29;20595;-62
2023/11/05 00:55:45;;;;;;;12.93;4.15;;;10.60;99.90;;;;;;4858831;29;20193;-64
2023/11/05 00:58:11;;;;;;;14.88;3.47;;;10.60;99.90;;;;;;4859714;29;20299;-68
2023/11/05 01:00:37;;;;;;;17.48;4.35;;;10.60;99.90;;;;;;4858700;29;20186;-67
2023/11/05 01:03:03;;;;;;;16.73;3.70;;;10.70;99.90;;;;;;4860273;29;20782;-63
2023/11/05 01:05:29;;;;;;;16.63;4.40;;;10.60;99.90;;;;;;4859886;29;20197;-65
2023/11/05 01:07:55;;;;;;;18.33;3.78;;;10.60;99.90;;;;;;4859714;29;20238;-67
2023/11/05 01:10:21;;;;;;;18.08;3.97;;;10.60;99.90;;;;;;4859866;29;20196;-69
2023/11/05 01:12:46;;;;;;;13.88;3.80;;;10.60;99.90;;;;;;4859073;29;20203;-64
2023/11/05 01:15:12;;;;;;;15.48;3.97;;;10.60;99.90;;;;;;4859748;29;20195;-62
2023/11/05 01:17:38;;;;;;;17.00;4.20;;;10.60;99.90;;;;;;4859493;29;20190;-63
2023/11/05 01:20:07;;;;;;;15.73;3.47;;;10.60;99.90;;;;;;4859871;29;20261;-65
2023/11/05 01:22:33;;;;;;;17.67;3.60;;;10.60;99.90;;;;;;4858414;29;20218;-64
2023/11/05 01:24:59;;;;;;;14.85;3.88;;;10.60;99.90;;;;;;4858302;29;20206;-65
2023/11/05 01:27:25;;;;;;;20.15;4.20;;;10.60;99.90;;;;;;4874103;29;20182;-67
2023/11/05 01:29:51;;;;;;;16.48;3.72;;;10.60;99.90;;;;;;4859868;29;20203;-66
2023/11/05 01:32:17;;;;;;;22.05;4.15;;;10.60;99.90;;;;;;4859605;29;20258;-62
2023/11/05 01:34:43;;;;;;;19.77;3.88;;;10.60;99.90;;;;;;4860999;29;20190;-63
2023/11/05 01:37:09;;;;;;;13.05;3.58;;;10.60;99.90;;;;;;4862865;29;20193;-68
2023/11/05 01:39:35;;;;;;;16.60;4.00;;;10.60;99.90;;;;;;4862033;29;20234;-63
2023/11/05 01:42:01;;;;;;;13.48;3.38;;;10.60;99.90;;;;;;4846117;29;20217;-70
2023/11/05 01:44:27;;;;;;;18.30;3.08;;;10.60;99.90;;;;;;4861527;29;20202;-63
2023/11/05 01:46:53;;;;;;;23.75;3.50;;;10.60;99.90;;;;;;4862340;29;20194;-63
2023/11/05 01:49:19;;;;;;;19.13;3.33;;;10.50;99.90;;;;;;4862614;29;20216;-67
2023/11/05 01:51:46;;;;;;;18.40;3.50;;;10.50;99.90;;;;;;4862798;29;20183;-68
2023/11/05 01:54:12;;;;;;;14.82;3.40;;;10.40;99.90;;;;;;4863034;29;20192;-62
2023/11/05 01:56:39;;;;;;;11.52;3.58;;;10.40;99.90;;;;;;4863477;29;20186;-67
2023/11/05 01:59:05;;;;;;;13.77;3.25;;;10.30;99.90;;;;;;4862468;29;20204;-69
2023/11/05 02:01:32;;;;;;;17.17;3.40;;;10.20;99.90;;;;;;4863385;29;20243;-62
2023/11/05 02:03:58;;;;;;;15.13;3.45;;;10.20;99.90;;;;;;4863236;29;20210;-66
2023/11/05 02:06:26;;;;;;;18.92;3.65;;;10.10;99.90;;;;;;4862549;29;20588;-69
2023/11/05 02:08:52;;;;;;;14.00;3.28;;;10.10;99.90;;;;;;4861233;29;20722;-65
2023/11/05 02:11:21;;;;;;;13.57;2.95;;;10.00;99.90;;;;;;4862303;29;20194;-63
2023/11/05 02:13:52;;;;;;;15.43;3.25;;;9.90;99.90;;;;;;4861577;29;20221;-65
2023/11/05 02:16:20;;;;;;;18.17;3.47;;;9.90;99.90;;;;;;4861395;29;20262;-66
2023/11/05 02:18:47;;;;;;;13.52;3.30;;;9.80;99.90;;;;;;4862332;29;20252;-69
2023/11/05 02:21:19;;;;;;;24.15;3.42;;;9.80;99.90;;;;;;4861141;29;20338;-67
2023/11/05 02:23:47;;;;;;;17.80;3.50;;;9.80;99.90;;;;;;4876712;29;20237;-67
2023/11/05 02:26:15;;;;;;;16.55;3.60;;;9.80;99.90;;;;;;4861288;29;20281;-64
2023/11/05 02:28:41;;;;;;;21.13;3.55;;;9.70;99.90;;;;;;4860981;29;20217;-67
2023/11/05 02:31:07;;;;;;;18.30;3.10;;;9.70;99.90;;;;;;4860670;29;20197;-64
2023/11/05 02:33:33;;;;;;;24.65;4.18;;;9.70;99.90;;;;;;4845479;29;20528;-63
2023/11/05 02:35:59;;;;;;;16.05;3.50;;;9.70;99.90;;;;;;4845777;29;20262;-65
2023/11/05 02:38:25;;;;;;;18.58;3.50;;;9.80;99.90;;;;;;4860370;29;20267;-66
2023/11/05 02:40:51;;;;;;;19.40;3.30;;;9.80;99.90;;;;;;4875898;29;20228;-69
2023/11/05 02:43:17;;;;;;;19.20;3.55;;;9.80;99.90;;;;;;4876110;29;20241;-64
2023/11/05 02:45:43;;;;;;;13.32;2.90;;;9.90;99.90;;;;;;4861262;29;20207;-69
2023/11/05 02:48:09;;;;;;;17.45;3.78;;;9.90;99.90;;;;;;4861804;29;20707;-62
2023/11/05 02:50:35;;;;;;;14.93;3.40;;;9.90;99.90;;;;;;4860845;29;20190;-62
2023/11/05 02:53:01;;;;;;;14.48;3.20;;;9.90;99.90;;;;;;4861369;29;20186;-67
2023/11/05 02:55:27;;;;;;;17.75;3.85;;;9.90;99.90;;;;;;4860680;29;20205;-67
2023/11/05 02:57:53;;;;;;;12.50;3.03;;;9.90;99.90;;;;;;4861422;29;20563;-62
2023/11/05 03:00:20;;;;;;;16.67;3.65;;;9.90;99.90;;;;;;4844732;29;20210;-69
2023/11/05 03:02:46;;;;;;;16.30;3.58;;;9.90;99.90;;;;;;4861200;29;20324;-69
2023/11/05 03:05:12;;;;;;;18.85;3.20;;;10.00;99.90;;;;;;4861526;29;20659;-63
2023/11/05 03:07:37;;;;;;;15.32;3.35;;;9.90;99.90;;;;;;4861225;29;20320;-69
2023/11/05 03:10:04;;;;;;;18.98;3.55;;;9.90;99.90;;;;;;4861549;29;20190;-65
2023/11/05 03:12:30;;;;;;;14.48;3.35;;;9.90;99.90;;;;;;4860106;29;20687;-70
2023/11/05 03:14:56;;;;;;;18.52;3.40;;;10.00;99.90;;;;;;4861595;29;20217;-69
2023/11/05 03:17:22;;;;;;;14.80;3.40;;;10.00;99.90;;;;;;4861607;29;20639;-63
2023/11/05 03:19:48;;;;;;;11.23;3.05;;;10.00;99.90;;;;;;4860960;29;20194;-64
2023/11/05 03:22:14;;;;;;;19.48;3.72;;;10.00;99.90;;;;;;4859811;29;20709;-63
2023/11/05 03:24:40;;;;;;;14.45;3.58;;;10.00;99.90;;;;;;4859918;29;20198;-68
2023/11/05 03:27:07;;;;;;;14.85;2.85;;;10.10;99.90;;;;;;4861149;29;20190;-67
2023/11/05 03:29:33;;;;;;;15.02;3.33;;;10.10;99.90;;;;;;4859777;29;20197;-67
2023/11/05 03:31:59;;;;;;;16.50;3.50;;;10.10;99.90;;;;;;4860823;29;20186;-66
2023/11/05 03:34:26;;;;;;;17.58;3.20;;;10.10;99.90;;;;;;4859637;29;20197;-64
2023/11/05 03:36:52;;;;;;;11.60;2.80;;;10.20;99.90;;;;;;4859998;29;20563;-63
2023/11/05 03:39:18;;;;;;;14.32;3.10;;;10.20;99.90;;;;;;4844535;29;20201;-63
2023/11/05 03:41:44;;;;;;;14.65;3.00;;;10.20;99.90;;;;;;4861473;29;20622;-63
2023/11/05 03:44:10;;;;;;;13.20;2.78;;;10.20;99.90;;;;;;4860966;29;20201;-65
2023/11/05 03:46:40;;;;;;;14.63;3.00;;;10.30;99.90;;;;;;4860739;29;20181;-67
2023/11/05 03:49:07;;;;;;;15.95;3.20;;;10.30;99.90;;;;;;4860703;29;20247;-64
2023/11/05 03:51:32;;;;;;;18.85;2.92;;;10.30;99.90;;;;;;4859084;29;20248;-71
2023/11/05 03:53:58;;;;;;;18.20;2.70;;;10.30;99.90;;;;;;4859369;29;20631;-64
2023/11/05 03:56:24;;;;;;;14.73;3.03;;;10.40;99.90;;;;;;4859374;29;20228;-63
2023/11/05 03:58:50;;;;;;;15.57;2.83;;;10.40;99.90;;;;;;4860430;29;20190;-62
2023/11/05 04:01:19;;;;;;;16.23;2.85;;;10.40;99.90;;;;;;4860531;29;20190;-70
2023/11/05 04:03:45;;;;;;;19.30;2.85;;;10.40;99.90;;;;;;4860360;29;20546;-70
2023/11/05 04:06:11;;;;;;;15.55;2.85;;;10.40;99.90;;;;;;4860225;29;20237;-63
2023/11/05 04:08:37;;;;;;;14.75;3.00;;;10.50;99.90;;;;;;4860183;29;20214;-69
2023/11/05 04:11:03;;;;;;;17.13;2.97;;;10.40;99.90;;;;;;4860684;29;20190;-63
2023/11/05 04:13:29;;;;;;;16.48;2.85;;;10.50;99.90;;;;;;4858825;29;20281;-64
2023/11/05 04:15:55;;;;;;;14.95;3.17;;;10.50;99.90;;;;;;4860379;29;20254;-68
2023/11/05 04:18:21;;;;;;;14.65;2.75;;;10.50;99.90;;;;;;4874262;29;20182;-64
2023/11/05 04:20:47;;;;;;;15.90;3.30;;;10.50;99.90;;;;;;4858761;29;20194;-63
2023/11/05 04:23:13;;;;;;;17.52;2.90;;;10.60;99.90;;;;;;4860244;29;20225;-63
2023/11/05 04:25:39;;;;;;;12.93;3.17;;;10.60;99.90;;;;;;4859098;29;20186;-69
2023/11/05 04:28:05;;;;;;;14.05;2.90;;;10.60;99.90;;;;;;4859731;29;20190;-63
2023/11/05 04:30:31;;;;;;;16.52;2.90;;;10.60;99.90;;;;;;4859401;29;20221;-66
2023/11/05 04:32:57;;;;;;;12.20;2.42;;;10.60;99.90;;;;;;4860137;29;20607;-67
2023/11/05 04:35:23;;;;;;;16.15;3.13;;;10.60;99.90;;;;;;4860171;29;20265;-67
2023/11/05 04:37:48;;;;;;;14.43;2.53;;;10.60;99.90;;;;;;4860032;29;20187;-64
2023/11/05 04:40:14;;;;;;;18.23;3.17;;;10.60;99.90;;;;;;4860148;29;20186;-63
2023/11/05 04:42:40;;;;;;;15.93;2.97;;;10.50;99.90;;;;;;4859578;29;20214;-68
2023/11/05 04:45:07;;;;;;;18.35;3.05;;;10.60;99.90;;;;;;4859714;29;20653;-66
2023/11/05 04:47:33;;;;;;;13.60;2.85;;;10.60;99.90;;;;;;4859637;29;20186;-68
2023/11/05 04:49:59;;;;;;;14.88;2.75;;;10.60;99.90;;;;;;4859851;29;20221;-70
2023/11/05 04:52:24;;;;;;;17.77;3.10;;;10.60;99.90;;;;;;4858735;29;20194;-69
2023/11/05 04:54:50;;;;;;;14.70;2.70;;;10.60;99.90;;;;;;4859696;29;20182;-62
2023/11/05 04:57:16;;;;;;;19.45;2.65;;;10.60;99.90;;;;;;4859628;29;20662;-69
2023/11/05 04:59:44;;;;;;;14.38;2.85;;;10.60;99.90;;;;;;4859432;29;20257;-63
2023/11/05 05:02:11;;;;;;;13.35;2.80;;;10.70;99.90;;;;;;4859802;29;20222;-62
2023/11/05 05:04:38;;;;;;;15.82;2.70;;;10.70;99.90;;;;;;4859517;29;20193;-65
2023/11/05 05:07:05;;;;;;;10.88;2.85;;;10.70;99.90;;;;;;4859257;29;20252;-70
2023/11/05 05:09:31;;;;;;;13.90;2.72;;;10.70;99.90;;;;;;4861002;29;20217;-67
2023/11/05 05:11:57;;;;;;;13.50;3.28;;;10.70;99.90;;;;;;4863247;29;20269;-66
2023/11/05 05:14:23;;;;;;;15.52;2.95;;;10.70;99.90;;;;;;4861613;29;20278;-64
2023/11/05 05:16:49;;;;;;;16.90;2.88;;;10.60;99.90;;;;;;4863067;29;20218;-66
2023/11/05 05:19:15;;;;;;;14.60;2.90;;;10.60;99.90;;;;;;4877348;29;20221;-66
2023/11/05 05:21:43;;;;;;;11.82;3.10;;;10.60;99.90;;;;;;4862904;29;20217;-67
2023/11/05 05:24:09;;;;;;;16.30;3.00;;;10.60;99.90;;;;;;4862613;29;20261;-64
2023/11/05 05:26:35;;;;;;;15.32;3.22;;;10.50;99.90;;;;;;4861884;29;20193;-69
2023/11/05 05:29:02;;;;;;;13.45;3.22;;;10.50;99.90;;;;;;4861498;29;20707;-65
2023/11/05 05:31:29;;;;;;;16.40;3.55;;;10.50;99.90;;;;;;4862938;29;20193;-68
2023/11/05 05:33:55;;;;;;;15.32;3.25;;;10.40;99.90;;;;;;4862974;29;20238;-63
2023/11/05 05:36:21;;;;;;;13.43;3.53;;;10.40;99.90;;;;;;4862745;29;20190;-64
2023/11/05 05:38:47;;;;;;;15.32;3.10;;;10.40;99.90;;;;;;4862325;29;20193;-63
2023/11/05 05:41:13;;;;;;;15.70;3.85;;;10.40;99.90;;;;;;4861497;29;20190;-66
2023/11/05 05:43:39;;;;;;;13.15;3.70;;;10.40;99.90;;;;;;4862527;29;20270;-66
2023/11/05 05:46:05;;;;;;;10.50;3.58;;;10.30;99.90;;;;;;4862307;29;20193;-62
2023/11/05 05:48:32;;;;;;;13.07;3.72;;;10.30;99.90;;;;;;4862545;29;20197;-66
2023/11/05 05:50:58;;;;;;;18.63;3.80;;;10.30;99.90;;;;;;4862693;29;20192;-65
2023/11/05 05:53:24;;;;;;;13.15;3.70;;;10.30;99.90;;;;;;4862448;29;20533;-64
2023/11/05 05:55:53;;;;;;;15.35;4.15;;;10.30;99.90;;;;;;4861203;29;20238;-64
2023/11/05 05:58:21;;;;;;;21.73;4.50;;;10.30;99.90;;;;;;4862963;29;20183;-68
2023/11/05 06:00:47;;;;;;;15.00;4.78;;;10.30;99.90;;;;;;4862390;29;20687;-64
2023/11/05 06:03:13;;;;;;;18.13;4.70;;;10.30;99.90;;;;;;4861081;29;20221;-62
2023/11/05 06:05:39;;;;;;;13.82;4.63;;;10.30;99.90;;;;;;4862087;29;20190;-70
2023/11/05 06:08:05;;;;;;;14.48;4.95;;;10.40;99.90;;;;;;4862710;29;20210;-68
2023/11/05 06:10:31;;;;;;;17.52;5.53;;;10.40;99.90;;;;;;4862198;29;20182;-65
2023/11/05 06:12:57;;;;;;;15.98;5.07;;;10.40;99.90;;;;;;4862817;29;20193;-69
2023/11/05 06:15:23;;;;;;;12.68;4.43;;;10.40;99.90;;;;;;4845519;29;20186;-66
2023/11/05 06:17:48;;;;;;;12.73;4.60;;;10.40;99.90;;;;;;4862134;29;20233;-72
2023/11/05 06:20:14;;;;;;;13.63;5.13;;;10.50;99.90;;;;;;4861517;29;20636;-68
2023/11/05 06:22:40;;;;;;;16.20;5.68;;;10.50;99.90;;;;;;4862053;29;20690;-65
2023/11/05 06:25:10;;;;;;;17.33;4.85;;;10.50;99.90;;;;;;4862345;29;20191;-70
2023/11/05 06:27:41;;;;;;;11.70;5.15;;;10.50;99.90;;;;;;4862050;29;20190;-66
2023/11/05 06:30:09;;;;;;;14.68;5.15;;;10.50;99.90;;;;;;4862145;29;20159;-69
2023/11/05 06:32:35;;;;;;;14.88;4.72;;;10.50;99.90;;;;;;4861730;29;20287;-69
2023/11/05 06:35:01;;;;;;;14.90;4.85;;;10.50;99.90;;;;;;4860642;29;20672;-62
2023/11/05 06:37:29;;;;;;;15.48;4.93;;;10.50;99.90;;;;;;4861322;29;20284;-64
2023/11/05 06:39:55;;;;;;;13.80;4.50;;;10.50;99.90;;;;;;4860835;29;20201;-64
2023/11/05 06:42:21;;;;;;;20.42;5.47;;;10.40;99.90;;;;;;4861842;29;20221;-66
2023/11/05 06:44:46;;;;;;;13.13;4.68;;;10.50;99.90;;;;;;4860562;29;20194;-64
2023/11/05 06:47:13;;;;;;;11.55;4.70;;;10.50;99.90;;;;;;4860718;29;20246;-66
2023/11/05 06:49:39;;;;;;;13.45;4.65;;;10.50;99.90;;;;;;4861766;29;20195;-70
2023/11/05 06:52:05;;;;;;;12.93;4.80;;;10.50;99.90;;;;;;4860788;29;20194;-62
2023/11/05 06:54:31;;;;;;;14.60;4.70;;;10.50;99.90;;;;;;4876140;29;20246;-66
2023/11/05 06:56:57;;;;;;;17.15;5.05;;;10.50;99.90;;;;;;4861705;29;20182;-67
2023/11/05 06:59:23;;;;;;;14.38;4.78;;;10.50;99.90;;;;;;4861379;29;20197;-67
2023/11/05 07:01:50;;;;;;;11.23;4.78;;;10.50;99.90;;;;;;4861510;29;20217;-64
2023/11/05 07:04:17;;;;;;;16.90;5.15;;;10.50;99.90;;;;;;4861348;29;20190;-71
2023/11/05 07:06:45;;;;;;;15.50;4.97;;;10.60;99.90;;;;;;4861422;29;20237;-69
2023/11/05 07:09:15;;;;;;;15.07;5.65;;;10.60;99.90;;;;;;4861294;29;20633;-70
2023/11/05 07:11:41;;;;;;;14.15;5.90;;;10.60;99.90;;;;;;4860832;29;20201;-65
2023/11/05 07:14:07;;;;;;;15.68;5.28;;;10.60;99.90;;;;;;4861264;29;20186;-69
2023/11/05 07:16:33;;;;;;;13.45;5.50;;;10.60;99.90;;;;;;4860984;29;20277;-65
2023/11/05 07:18:59;;;;;;;13.60;5.57;;;10.70;99.90;;;;;;4860113;29;20186;-64
2023/11/05 07:21:25;;;;;;;17.15;5.68;;;10.70;99.90;;;;;;4859648;29;20238;-63
2023/11/05 07:23:51;;;;;;;9.52;5.05;;;10.70;99.90;;;;;;4859912;29;20282;-68
2023/11/05 07:26:17;;;;;;;12.80;5.63;;;10.70;99.90;;;;;;4860685;29;20639;-64
2023/11/05 07:28:44;;;;;;;19.90;6.40;;;10.70;99.90;;;;;;4860900;29;20246;-69
2023/11/05 07:31:19;;;;;;;16.05;6.40;;;10.70;99.90;;;;;;4858920;29;20254;-67
2023/11/05 07:33:45;;;;;;;9.25;5.32;;;10.80;99.90;;;;;;4861025;29;20585;-65
2023/11/05 07:36:13;;;;;;;16.63;6.18;;;10.80;99.90;;;;;;4860598;29;20194;-66
2023/11/05 07:38:39;;;;;;;14.05;5.30;;;10.80;99.90;;;;;;4860640;29;20208;-72
2023/11/05 07:41:06;;;;;;;9.40;5.00;;;10.80;99.90;;;;;;4860586;29;20667;-69
2023/11/05 07:43:33;;;;;;;11.50;5.22;;;10.80;99.90;;;;;;4860709;29;20222;-71
2023/11/05 07:45:59;;;;;;;9.05;5.18;;;10.80;99.90;;;;;;4875053;29;20182;-66
2023/11/05 07:48:25;;;;;;;11.73;5.85;;;10.80;99.90;;;;;;4860485;29;20190;-72
2023/11/05 07:50:52;;;;;;;14.75;5.40;;;10.90;99.90;;;;;;4859283;29;20610;-69
2023/11/05 07:53:20;;;;;;;12.88;5.50;;;10.90;99.90;;;;;;4874765;29;20186;-63
2023/11/05 07:55:46;;;;;;;7.28;4.53;;;10.90;99.90;;;;;;4859537;29;20190;-67
2023/11/05 07:58:12;;;;;;;10.93;5.60;;;11.00;99.90;;;;;;4859504;29;20446;-66
2023/11/05 08:00:42;;;;;;;10.15;5.10;;;11.10;99.90;;;;;;4860538;29;20194;-67
2023/11/05 08:03:08;;;;;;;7.90;4.07;;;11.10;99.90;;;;;;4859591;29;20580;-64
2023/11/05 08:05:34;;;;;;;6.65;4.07;;;11.10;99.90;;;;;;4859923;29;20249;-66
2023/11/05 08:08:00;;;;;;;7.47;4.15;;;11.10;99.90;;;;;;4860022;29;20277;-66
2023/11/05 08:10:28;;;;;;;9.80;4.05;;;11.10;99.90;;;;;;4860676;29;20194;-70
2023/11/05 08:12:54;;;;;;;7.97;3.50;;;11.10;99.90;;;;;;4859940;29;20245;-68
2023/11/05 08:15:20;;;;;;;11.05;3.55;;;11.20;99.90;;;;;;4860096;29;20186;-69
2023/11/05 08:17:47;;;;;;;7.80;3.60;;;11.20;99.90;;;;;;4860788;29;20548;-62
2023/11/05 08:20:14;;;;;;;7.65;3.65;;;11.20;99.90;;;;;;4860236;29;20571;-67
2023/11/05 08:22:42;;;;;;;5.35;3.60;;;11.20;99.90;;;;;;4860765;29;20217;-61
2023/11/05 08:25:11;;;;;;;6.55;3.65;;;11.20;99.90;;;;;;4860098;29;20198;-63
2023/11/05 08:27:39;;;;;;;7.07;3.88;;;11.20;99.90;;;;;;4860747;29;20189;-67
2023/11/05 08:30:06;;;;;;;6.57;4.07;;;11.20;99.90;;;;;;4860674;29;20544;-68
2023/11/05 08:32:32;;;;;;;6.63;4.07;;;11.30;99.90;;;;;;4858876;29;20281;-68
2023/11/05 08:34:58;;;;;;;9.43;3.72;;;11.30;99.90;;;;;;4859362;29;20277;-65
2023/11/05 08:37:24;;;;;;;6.45;4.20;;;11.30;99.90;;;;;;4859908;29;20190;-65
2023/11/05 08:39:50;;;;;;;6.20;4.20;;;11.30;99.90;;;;;;4874656;29;20198;-64
2023/11/05 08:42:17;;;;;;;6.95;4.75;;;11.30;99.90;;;;;;4858605;29;20296;-69
2023/11/05 08:44:43;;;;;;;9.07;6.15;;;11.40;99.90;;;;;;4858815;29;20201;-68
2023/11/05 08:47:09;;;;;;;9.05;6.47;;;11.40;99.90;;;;;;4860503;29;20185;-65
2023/11/05 08:49:35;;;;;;;11.02;6.18;;;11.50;99.90;;;;;;4860154;29;20217;-68
2023/11/05 08:52:01;;;;;;;8.65;6.45;;;11.50;99.90;;;;;;4859806;29;20189;-69
2023/11/05 08:54:28;;;;;;;9.18;6.70;;;11.50;99.90;;;;;;4859178;29;20194;-68
2023/11/05 08:56:53;;;;;;;7.57;5.45;;;11.50;99.90;;;;;;4859916;29;20639;-67
2023/11/05 08:59:20;;;;;;;10.98;6.47;;;11.50;99.90;;;;;;4859685;29;20642;-69
2023/11/05 09:01:45;;;;;;;9.13;5.75;;;11.60;99.90;;;;;;4859374;29;20194;-68
2023/11/05 09:04:13;;;;;;;12.32;6.18;;;11.60;99.90;;;;;;4859152;29;20198;-66
2023/11/05 09:06:39;;;;;;;12.02;6.43;;;11.60;99.90;;;;;;4859831;29;20694;-65
2023/11/05 09:09:06;;;;;;;14.43;7.72;;;11.70;99.90;;;;;;4859712;29;20273;-67
2023/11/05 09:11:33;;;;;;;12.48;7.53;;;11.70;99.90;;;;;;4859675;29;20617;-69
2023/11/05 09:13:59;;;;;;;11.07;6.50;;;11.70;99.90;;;;;;4859505;29;20685;-62
2023/11/05 09:16:25;;;;;;;11.13;6.53;;;11.70;99.90;;;;;;4859660;29;20202;-67
2023/11/05 09:18:51;;;;;;;11.00;6.30;;;11.70;99.90;;;;;;4859778;29;20198;-71
2023/11/05 09:21:17;;;;;;;14.55;6.20;;;11.70;99.90;;;;;;4873870;29;20186;-64
2023/11/05 09:23:43;;;;;;;12.38;6.82;;;11.80;99.90;;;;;;4859157;29;20556;-67
2023/11/05 09:26:09;;;;;;;10.75;6.53;;;11.80;99.90;;;;;;4859463;29;20333;-69
2023/11/05 09:28:35;;;;;;;12.15;6.28;;;11.80;99.90;;;;;;4859563;29;20193;-70
2023/11/05 09:31:02;;;;;;;9.55;6.47;;;11.90;99.90;;;;;;4859489;29;20190;-71
2023/11/05 09:33:28;;;;;;;9.00;5.68;;;12.00;99.90;;;;;;4859317;29;20183;-65
2023/11/05 09:35:54;;;;;;;11.02;5.80;;;12.00;99.90;;;;;;4858177;29;20201;-64
2023/11/05 09:38:20;;;;;;;12.85;6.15;;;12.10;99.90;;;;;;4859505;29;20707;-65
2023/11/05 09:40:47;;;;;;;10.35;5.60;;;12.20;99.90;;;;;;4859250;29;20189;-65
2023/11/05 09:43:13;;;;;;;10.13;5.75;;;12.20;99.90;;;;;;4859267;29;20221;-65
2023/11/05 09:45:39;;;;;;;17.13;6.43;;;12.30;99.90;;;;;;4858314;29;20194;-71
2023/11/05 09:48:08;;;;;;;11.23;5.85;;;12.40;99.90;;;;;;4859640;29;20205;-71
2023/11/05 09:50:35;;;;;;;9.60;5.75;;;12.50;99.90;;;;;;4859869;29;20261;-72
2023/11/05 09:53:14;;;;;;;12.38;5.80;;;12.50;99.90;;;;;;4859301;29;20194;-71
2023/11/05 09:55:41;;;;;;;10.50;6.05;;;12.50;99.90;;;;;;4861490;29;20531;-69
2023/11/05 09:58:09;;;;;;;10.98;6.22;;;12.60;99.90;;;;;;4861946;29;20632;-69
2023/11/05 10:00:36;;;;;;;12.07;5.57;;;12.60;99.90;;;;;;4862817;29;20213;-72
2023/11/05 10:03:07;;;;;;;11.65;5.60;;;12.70;99.90;;;;;;4862367;29;20675;-68
2023/11/05 10:05:35;;;;;;;13.95;5.45;;;12.70;99.90;;;;;;4863067;29;20246;-67
2023/11/05 10:08:05;;;;;;;10.98;4.85;;;12.80;99.90;;;;;;4862100;29;20222;-66
2023/11/05 10:10:32;;;;;;;10.18;4.95;;;12.80;99.90;;;;;;4860867;29;20241;-66
2023/11/05 10:12:58;;;;;;;12.30;5.30;;;12.90;99.90;;;;;;4862435;29;20225;-67
2023/11/05 10:15:25;;;;;;;9.60;5.15;;;12.90;99.90;;;;;;4862851;29;20198;-66
2023/11/05 10:17:56;;;;;;;11.30;4.63;;;13.00;99.90;;;;;;4861912;29;20182;-65
2023/11/05 10:20:23;;;;;;;9.95;4.72;;;13.00;99.90;;;;;;4862126;29;20237;-64
2023/11/05 10:23:03;;;;;;;12.02;5.00;;;13.00;99.90;;;;;;4862233;29;20293;-65
2023/11/05 10:25:29;;;;;;;8.13;4.63;;;13.10;99.90;;;;;;4861887;29;20181;-64
2023/11/05 10:27:57;;;;;;;15.45;4.57;;;13.10;99.90;;;;;;4861711;29;20186;-64
2023/11/05 10:30:26;;;;;;;10.52;5.65;;;13.20;99.90;;;;;;4861803;29;20186;-64
2023/11/05 10:32:53;;;;;;;11.85;4.78;;;13.20;99.90;;;;;;4862123;29;20193;-62
2023/11/05 10:35:21;;;;;;;14.50;4.95;;;13.20;99.90;;;;;;4861792;29;20654;-63
2023/11/05 10:37:49;;;;;;;11.60;4.72;;;13.30;99.90;;;;;;4862147;29;20238;-64
2023/11/05 10:40:16;;;;;;;8.68;4.80;;;13.30;99.90;;;;;;4861967;29;20190;-65
2023/11/05 10:42:49;;;;;;;11.82;5.15;;;13.30;99.90;;;;;;4859885;29;20842;-65
2023/11/05 10:45:17;;;;;;;12.38;5.40;;;13.40;99.90;;;;;;4861802;29;20581;-68
2023/11/05 10:47:46;;;;;;;11.25;5.10;;;13.40;99.90;;;;;;4860361;29;20193;-69
2023/11/05 10:50:19;;;;;;;10.65;5.18;;;13.40;99.90;;;;;;4861353;29;20204;-69
2023/11/05 10:52:49;;;;;;;15.07;5.20;;;13.40;99.90;;;;;;4860225;29;20544;-65
2023/11/05 10:55:16;;;;;;;10.55;5.50;;;13.40;99.90;;;;;;4861345;29;20227;-67
2023/11/05 10:57:47;;;;;;;10.88;6.25;;;13.50;99.90;;;;;;4861067;29;20539;-66
2023/11/05 11:00:16;;;;;;;10.52;5.75;;;13.50;99.90;;;;;;4861327;29;20227;-69
2023/11/05 11:02:42;;;;;;;12.10;5.63;;;13.50;99.90;;;;;;4861109;29;20218;-72
2023/11/05 11:05:09;;;;;;;15.38;6.22;;;13.60;99.90;;;;;;4861615;29;20193;-63
2023/11/05 11:07:38;;;;;;;13.40;5.78;;;13.60;99.90;;;;;;4861613;29;20230;-69
2023/11/05 11:10:11;;;;;;;11.98;6.03;;;13.60;99.90;;;;;;4860077;29;20191;-70
2023/11/05 11:12:39;;;;;;;11.38;5.68;;;13.70;99.90;;;;;;4860289;29;20616;-69
2023/11/05 11:15:09;;;;;;;11.57;5.70;;;13.70;99.90;;;;;;4844770;29;20548;-65
2023/11/05 11:17:39;;;;;;;12.43;5.80;;;13.70;99.90;;;;;;4861096;29;20174;-66
2023/11/05 11:20:11;;;;;;;17.20;5.85;;;13.70;99.90;;;;;;4859611;29;20202;-67
2023/11/05 11:22:45;;;;;;;13.68;6.10;;;13.70;99.90;;;;;;4860881;29;20210;-64
2023/11/05 11:25:14;;;;;;;16.95;6.18;;;13.70;99.90;;;;;;4860814;29;20173;-69
2023/11/05 11:27:41;;;;;;;16.20;6.63;;;13.70;99.90;;;;;;4860643;29;20182;-69
2023/11/05 11:30:09;;;;;;;16.02;6.85;;;13.70;99.90;;;;;;4861226;29;20285;-65
2023/11/05 11:32:37;;;;;;;15.77;7.10;;;13.70;99.90;;;;;;4861102;29;20186;-66
2023/11/05 11:35:04;;;;;;;17.55;7.20;;;13.70;99.90;;;;;;4861546;29;20186;-70
2023/11/05 11:37:31;;;;;;;15.82;7.00;;;13.70;99.90;;;;;;4861929;29;20639;-68
2023/11/05 11:39:59;;;;;;;13.82;6.60;;;13.70;99.90;;;;;;4845691;29;20205;-65
2023/11/05 11:42:26;;;;;;;18.95;7.00;;;13.70;99.90;;;;;;4860828;29;20677;-69
2023/11/05 11:44:53;;;;;;;15.40;7.07;;;13.70;99.90;;;;;;4874873;29;20204;-67
2023/11/05 11:47:24;;;;;;;20.73;7.35;;;13.70;99.90;;;;;;4875224;29;20182;-66
2023/11/05 11:49:50;;;;;;;15.70;7.25;;;13.70;99.90;;;;;;4861049;29;20170;-63
2023/11/05 11:52:16;;;;;;;16.65;7.60;;;13.70;99.90;;;;;;4875005;29;20282;-67
2023/11/05 11:54:44;;;;;;;15.07;8.10;;;13.70;99.90;;;;;;4860530;29;20190;-70
2023/11/05 11:57:15;;;;;;;15.32;8.20;;;13.70;99.90;;;;;;4860698;29;20193;-69
2023/11/05 11:59:41;;;;;;;19.20;8.00;;;13.60;99.90;;;;;;4859741;29;20650;-68
2023/11/05 12:02:12;;;;;;;17.88;7.97;;;13.50;99.90;;;;;;4860047;29;20213;-64
2023/11/05 12:04:38;;;;;;;22.25;8.43;;;13.50;99.90;;;;;;4859836;29;20174;-68
2023/11/05 12:07:07;;;;;;;15.45;8.23;;;13.50;99.90;;;;;;4860165;29;20237;-70
2023/11/05 12:09:34;;;;;;;16.98;8.45;;;13.50;99.90;;;;;;4859021;29;20551;-65
2023/11/05 12:12:01;;;;;;;18.80;8.63;;;13.50;99.90;;;;;;4859954;29;20186;-67
2023/11/05 12:14:27;;;;;;;16.42;9.38;;;13.40;99.90;;;;;;4860065;29;20719;-65
2023/11/05 12:16:57;;;;;;;17.15;9.52;;;13.40;99.90;;;;;;4859828;29;20186;-65
2023/11/05 12:19:24;;;;;;;16.63;7.93;;;13.40;99.90;;;;;;4859955;29;20262;-69
2023/11/05 12:21:50;;;;;;;16.02;7.68;;;13.40;99.90;;;;;;4859758;29;20205;-64
2023/11/05 12:24:16;;;;;;;18.25;8.35;;;13.30;99.90;;;;;;4859705;29;20685;-70
2023/11/05 12:26:42;;;;;;;14.00;7.70;;;13.30;99.90;;;;;;4859869;29;20274;-66
2023/11/05 12:29:13;;;;;;;20.52;7.95;;;13.30;99.90;;;;;;4859705;29;20217;-64
2023/11/05 12:31:43;;;;;;;18.58;8.27;;;13.40;99.90;;;;;;4859439;29;20173;-64
2023/11/05 12:34:09;;;;;;;17.45;8.35;;;13.40;99.90;;;;;;4859532;29;20253;-65
2023/11/05 12:36:35;;;;;;;16.60;8.13;;;13.40;99.90;;;;;;4873629;29;20190;-69